createdAt,value
2023-05-10T00:01:18.443Z,83.37
2023-05-10T00:03:48.081Z,82.46
2023-05-10T00:06:15.524Z,82.25
2023-05-10T00:08:46.872Z,81.37
2023-05-10T00:11:13.583Z,80.27
2023-05-10T00:13:40.892Z,80.23
2023-05-10T00:16:11.925Z,81.82
2023-05-10T00:18:39.784Z,82.16
2023-05-10T00:21:09.360Z,84.06
2023-05-10T00:23:36.172Z,82.18
2023-05-10T00:26:03.292Z,84.33
2023-05-10T00:28:30.801Z,84.14
2023-05-10T00:30:57.498Z,84.88
2023-05-10T00:33:25.424Z,83.60
2023-05-10T00:35:53.601Z,83.01
2023-05-10T00:38:21.879Z,86.29
2023-05-10T00:40:48.850Z,85.50
2023-05-10T00:43:18.881Z,85.49
2023-05-10T00:45:46.370Z,85.58
2023-05-10T00:48:13.662Z,87.51
2023-05-10T00:50:44.588Z,85.39
2023-05-10T00:53:11.565Z,84.81
2023-05-10T00:55:38.755Z,86.38
2023-05-10T00:58:06.757Z,86.10
2023-05-10T01:00:34.612Z,85.41
2023-05-10T01:03:01.957Z,86.48
2023-05-10T01:05:29.489Z,86.97
2023-05-10T01:07:57.660Z,85.23
2023-05-10T01:10:25.148Z,86.32
2023-05-10T01:12:51.905Z,84.89
2023-05-10T01:15:21.733Z,84.02
2023-05-10T01:17:49.737Z,85.38
2023-05-10T01:20:19.597Z,84.53
2023-05-10T01:23:08.415Z,83.85
2023-05-10T01:26:09.787Z,86.11
2023-05-10T01:28:59.498Z,85.97
2023-05-10T01:31:55.053Z,85.94
2023-05-10T01:34:27.377Z,86.66
2023-05-10T01:37:04.885Z,87.25
2023-05-10T01:39:44.685Z,87.30
2023-05-10T01:42:20.080Z,87.19
2023-05-10T01:44:56.502Z,87.70
2023-05-10T01:47:29.092Z,87.11
2023-05-10T01:49:56.377Z,87.13
2023-05-10T01:52:31.739Z,86.26
2023-05-10T01:55:09.982Z,86.24
2023-05-10T01:57:38.347Z,85.84
2023-05-10T02:00:10.876Z,85.64
2023-05-10T02:02:42.203Z,86.22
2023-05-10T02:05:09.105Z,86.27
2023-05-10T02:07:37.048Z,87.74
2023-05-10T02:10:23.996Z,87.05
2023-05-10T02:12:51.326Z,87.24
2023-05-10T02:15:21.634Z,86.58
2023-05-10T02:17:49.762Z,85.13
2023-05-10T02:20:17.545Z,85.96
2023-05-10T02:22:44.733Z,84.72
2023-05-10T02:25:11.773Z,84.57
2023-05-10T02:27:38.876Z,84.31
2023-05-10T02:30:08.594Z,83.90
2023-05-10T02:32:35.747Z,83.88
2023-05-10T02:35:05.657Z,83.93
2023-05-10T02:37:32.473Z,83.52
2023-05-10T02:39:59.631Z,84.10
2023-05-10T02:42:36.297Z,83.56
2023-05-10T02:45:04.529Z,83.70
2023-05-10T02:47:34.255Z,83.13
2023-05-10T02:50:01.380Z,83.15
2023-05-10T02:52:30.084Z,83.23
2023-05-10T02:54:57.276Z,84.06
2023-05-10T02:57:27.753Z,84.79
2023-05-10T02:59:55.210Z,85.14
2023-05-10T03:02:22.322Z,84.17
2023-05-10T03:04:49.093Z,84.28
2023-05-10T03:07:15.895Z,84.59
2023-05-10T03:09:42.578Z,86.34
2023-05-10T03:12:17.214Z,87.03
2023-05-10T03:15:09.423Z,86.32
2023-05-10T03:17:54.386Z,86.58
2023-05-10T03:20:44.687Z,85.40
2023-05-10T03:23:28.684Z,85.83
2023-05-10T03:25:56.152Z,86.15
2023-05-10T03:28:23.902Z,85.67
2023-05-10T03:30:50.691Z,83.93
2023-05-10T03:33:17.778Z,83.05
2023-05-10T03:35:44.876Z,82.83
2023-05-10T03:38:12.176Z,81.71
2023-05-10T03:40:38.917Z,80.78
2023-05-10T03:43:08.742Z,81.77
2023-05-10T03:45:35.869Z,83.10
2023-05-10T03:48:02.606Z,81.04
2023-05-10T03:50:29.862Z,79.75
2023-05-10T03:52:56.991Z,84.84
2023-05-10T03:55:23.920Z,86.35
2023-05-10T03:57:51.387Z,87.17
2023-05-10T04:00:21.040Z,88.95
2023-05-10T04:02:50.524Z,88.77
2023-05-10T04:05:20.239Z,90.16
2023-05-10T04:07:49.786Z,89.80
2023-05-10T04:10:17.237Z,89.89
2023-05-10T04:12:45.480Z,90.95
2023-05-10T04:15:12.600Z,91.49
2023-05-10T04:17:39.771Z,91.19
2023-05-10T04:20:08.852Z,91.13
2023-05-10T04:22:35.596Z,91.16
2023-05-10T04:25:02.753Z,91.09
2023-05-10T04:27:29.790Z,90.24
2023-05-10T04:29:57.684Z,89.20
2023-05-10T04:32:24.701Z,88.55
2023-05-10T04:34:51.640Z,89.58
2023-05-10T04:37:18.580Z,90.15
2023-05-10T04:39:46.896Z,89.65
2023-05-10T04:42:16.424Z,88.87
2023-05-10T04:44:46.612Z,88.18
2023-05-10T04:47:13.715Z,86.89
2023-05-10T04:49:40.413Z,85.53
2023-05-10T04:52:08.137Z,86.44
2023-05-10T04:54:35.261Z,84.17
2023-05-10T04:57:02.404Z,84.59
2023-05-10T04:59:29.138Z,85.49
2023-05-10T05:01:55.836Z,83.76
2023-05-10T05:04:22.623Z,85.30
2023-05-10T05:06:50.242Z,83.67
2023-05-10T05:09:18.792Z,83.26
2023-05-10T05:11:46.917Z,82.80
2023-05-10T05:14:13.881Z,79.07
2023-05-10T05:16:40.979Z,80.10
2023-05-10T05:19:08.134Z,81.82
2023-05-10T05:21:34.868Z,83.10
2023-05-10T05:24:01.900Z,81.17
2023-05-10T05:26:29.757Z,84.36
2023-05-10T05:28:59.042Z,83.96
2023-05-10T05:31:28.803Z,85.39
2023-05-10T05:33:55.929Z,82.89
2023-05-10T05:36:22.663Z,80.79
2023-05-10T05:38:49.637Z,80.01
2023-05-10T05:41:16.774Z,78.45
2023-05-10T05:43:46.307Z,82.15
2023-05-10T05:46:13.442Z,76.38
2023-05-10T05:48:40.625Z,80.61
2023-05-10T05:51:07.751Z,80.16
2023-05-10T05:53:34.946Z,80.10
2023-05-10T05:56:04.770Z,79.39
2023-05-10T05:58:32.001Z,78.32
2023-05-10T06:01:01.404Z,75.33
2023-05-10T06:03:28.443Z,75.24
2023-05-10T06:05:56.455Z,75.71
2023-05-10T06:08:23.533Z,79.24
2023-05-10T06:10:50.984Z,74.78
2023-05-10T06:13:17.830Z,77.04
2023-05-10T06:15:45.853Z,72.69
2023-05-10T06:18:13.336Z,73.88
2023-05-10T06:20:41.945Z,75.37
2023-05-10T06:23:11.646Z,76.50
2023-05-10T06:25:38.632Z,76.63
2023-05-10T06:28:06.373Z,75.44
2023-05-10T06:30:33.400Z,77.79
2023-05-10T06:33:00.568Z,75.35
2023-05-10T06:35:30.125Z,75.92
2023-05-10T06:38:02.081Z,75.68
2023-05-10T06:40:30.774Z,74.67
2023-05-10T06:42:57.905Z,73.33
2023-05-10T06:45:25.016Z,74.76
2023-05-10T06:47:52.244Z,73.89
2023-05-10T06:50:19.458Z,71.28
2023-05-10T06:52:47.176Z,74.22
2023-05-10T06:55:14.375Z,73.28
2023-05-10T06:57:41.220Z,74.40
2023-05-10T07:00:09.931Z,75.92
2023-05-10T07:02:36.765Z,77.11
2023-05-10T07:05:04.143Z,72.34
2023-05-10T07:07:31.402Z,75.70
2023-05-10T07:09:58.258Z,67.06
2023-05-10T07:12:25.712Z,71.86
2023-05-10T07:14:52.527Z,72.02
2023-05-10T07:17:19.581Z,71.27
2023-05-10T07:19:46.750Z,71.67
2023-05-10T07:22:16.379Z,69.32
2023-05-10T07:24:43.549Z,69.49
2023-05-10T07:27:10.355Z,69.58
2023-05-10T07:29:37.053Z,69.58
2023-05-10T07:32:03.764Z,70.24
2023-05-10T07:34:31.027Z,70.69
2023-05-10T07:36:59.413Z,72.84
2023-05-10T07:39:29.460Z,73.36
2023-05-10T07:41:56.379Z,67.38
2023-05-10T07:44:23.170Z,72.01
2023-05-10T07:46:50.645Z,70.92
2023-05-10T07:49:18.156Z,67.97
2023-05-10T07:51:45.308Z,70.19
2023-05-10T07:54:12.413Z,68.39
2023-05-10T07:56:39.752Z,68.87
2023-05-10T07:59:08.134Z,69.47
2023-05-10T08:01:36.413Z,67.83
2023-05-10T08:04:03.665Z,69.04
2023-05-10T08:06:30.511Z,70.80
2023-05-10T08:08:57.241Z,69.75
2023-05-10T08:11:24.047Z,69.70
2023-05-10T08:13:50.931Z,70.56
2023-05-10T08:16:20.032Z,70.96
2023-05-10T08:18:47.251Z,70.51
2023-05-10T08:21:16.831Z,71.39
2023-05-10T08:23:43.605Z,68.54
2023-05-10T08:26:10.312Z,68.90
2023-05-10T08:28:38.202Z,64.82
2023-05-10T08:31:06.225Z,65.84
2023-05-10T08:33:33.121Z,65.50
2023-05-10T08:36:00.877Z,62.41
2023-05-10T08:38:27.823Z,61.38
2023-05-10T08:40:55.351Z,63.65
2023-05-10T08:43:22.082Z,61.79
2023-05-10T08:45:49.462Z,61.33
2023-05-10T08:48:16.198Z,60.18
2023-05-10T08:50:43.407Z,59.61
2023-05-10T08:53:15.813Z,62.84
2023-05-10T08:55:42.928Z,59.58
2023-05-10T08:58:10.045Z,60.80
2023-05-10T09:00:36.824Z,60.40
2023-05-10T09:03:04.751Z,59.78
2023-05-10T09:05:31.595Z,60.79
2023-05-10T09:07:58.865Z,58.99
2023-05-10T09:10:25.658Z,60.92
2023-05-10T09:12:52.726Z,61.30
2023-05-10T09:15:19.990Z,63.38
2023-05-10T09:17:46.873Z,63.62
2023-05-10T09:20:13.610Z,66.86
2023-05-10T09:22:40.329Z,64.90
2023-05-10T09:25:15.425Z,64.55
2023-05-10T09:27:48.512Z,63.46
2023-05-10T09:30:31.048Z,62.54
2023-05-10T09:33:02.015Z,61.92
2023-05-10T09:35:30.162Z,61.14
2023-05-10T09:37:58.549Z,59.30
2023-05-10T09:40:26.002Z,59.57
2023-05-10T09:42:57.037Z,57.81
2023-05-10T09:45:28.140Z,55.42
2023-05-10T09:47:57.994Z,57.20
2023-05-10T09:50:25.536Z,57.61
2023-05-10T09:53:02.380Z,55.53
2023-05-10T09:55:47.501Z,54.26
2023-05-10T09:58:14.475Z,56.49
2023-05-10T10:00:44.975Z,53.21
2023-05-10T10:03:16.026Z,55.50
2023-05-10T10:05:42.781Z,56.60
2023-05-10T10:08:12.736Z,56.69
2023-05-10T10:10:39.962Z,58.14
2023-05-10T10:13:08.450Z,57.51
2023-05-10T10:15:35.885Z,58.49
2023-05-10T10:18:05.601Z,60.40
2023-05-10T10:20:33.548Z,58.43
2023-05-10T10:23:01.439Z,58.88
2023-05-10T10:25:29.449Z,60.55
2023-05-10T10:28:15.901Z,60.45
2023-05-10T10:30:49.774Z,59.76
2023-05-10T10:33:48.129Z,59.03
2023-05-10T10:36:16.377Z,56.95
2023-05-10T10:38:55.558Z,58.92
2023-05-10T10:41:37.705Z,56.58
2023-05-10T10:44:23.809Z,54.80
2023-05-10T10:47:12.197Z,54.08
2023-05-10T10:49:44.619Z,53.54
2023-05-10T10:52:40.821Z,52.98
2023-05-10T10:55:36.803Z,49.79
2023-05-10T10:58:04.075Z,50.78
2023-05-10T11:00:38.376Z,52.56
2023-05-10T11:03:12.059Z,51.18
2023-05-10T11:05:45.993Z,51.18
2023-05-10T11:08:14.594Z,53.27
2023-05-10T11:10:42.193Z,51.70
2023-05-10T11:13:09.791Z,49.37
2023-05-10T11:15:37.909Z,53.60
2023-05-10T11:18:30.692Z,52.85
2023-05-10T11:21:01.614Z,53.77
2023-05-10T11:23:48.619Z,52.81
2023-05-10T11:26:16.820Z,53.74
2023-05-10T11:28:51.415Z,51.87
2023-05-10T11:31:24.914Z,51.68
2023-05-10T11:33:53.234Z,50.62
2023-05-10T11:36:21.863Z,47.44
2023-05-10T11:38:48.679Z,49.30
2023-05-10T11:41:16.785Z,47.80
2023-05-10T11:43:43.557Z,46.33
2023-05-10T11:46:13.616Z,49.34
2023-05-10T11:48:41.066Z,46.59
2023-05-10T11:51:09.526Z,46.71
2023-05-10T11:53:36.247Z,47.23
2023-05-10T11:56:10.531Z,47.34
2023-05-10T11:58:38.073Z,47.89
2023-05-10T12:01:06.281Z,45.74
2023-05-10T12:03:33.955Z,45.99
2023-05-10T12:06:01.367Z,45.37
2023-05-10T12:08:29.020Z,46.49
2023-05-10T12:11:07.635Z,46.50
2023-05-10T12:13:42.495Z,48.42
2023-05-10T12:16:22.511Z,47.11
2023-05-10T12:18:50.037Z,47.91
2023-05-10T12:21:19.996Z,48.21
2023-05-10T12:23:50.741Z,47.72
2023-05-10T12:26:17.925Z,43.93
2023-05-10T12:28:44.600Z,46.17
2023-05-10T12:31:14.079Z,45.23
2023-05-10T12:33:42.782Z,45.45
2023-05-10T12:36:18.810Z,46.92
2023-05-10T12:38:46.086Z,45.08
2023-05-10T12:41:17.477Z,45.74
2023-05-10T12:43:47.171Z,43.34
2023-05-10T12:46:15.381Z,43.94
2023-05-10T12:48:42.477Z,43.34
2023-05-10T12:51:09.275Z,43.98
2023-05-10T12:53:36.793Z,46.32
2023-05-10T12:56:04.877Z,45.83
2023-05-10T12:58:35.968Z,46.58
2023-05-10T13:01:03.308Z,45.05
2023-05-10T13:03:30.626Z,46.10
2023-05-10T13:05:57.774Z,44.52
2023-05-10T13:08:27.326Z,43.82
2023-05-10T13:10:54.406Z,47.01
2023-05-10T13:13:21.184Z,45.79
2023-05-10T13:15:50.763Z,47.25
2023-05-10T13:18:20.331Z,44.67
2023-05-10T13:20:49.930Z,45.64
2023-05-10T13:23:16.677Z,47.14
2023-05-10T13:25:44.702Z,46.28
2023-05-10T13:28:14.250Z,47.27
2023-05-10T13:30:43.844Z,48.87
2023-05-10T13:33:10.910Z,48.73
2023-05-10T13:35:38.031Z,47.49
2023-05-10T13:38:07.566Z,47.04
2023-05-10T13:40:37.132Z,47.20
2023-05-10T13:43:04.319Z,48.51
2023-05-10T13:45:33.870Z,49.30
2023-05-10T13:48:00.639Z,48.03
2023-05-10T13:50:27.778Z,46.21
2023-05-10T13:52:58.934Z,47.44
2023-05-10T13:55:25.706Z,47.98
2023-05-10T13:57:52.844Z,48.83
2023-05-10T14:00:20.531Z,48.96
2023-05-10T14:02:50.136Z,48.02
2023-05-10T14:05:22.363Z,47.25
2023-05-10T14:07:56.944Z,47.68
2023-05-10T14:10:24.025Z,45.48
2023-05-10T14:12:50.958Z,47.39
2023-05-10T14:15:17.943Z,45.56
2023-05-10T14:17:46.074Z,46.87
2023-05-10T14:20:12.813Z,47.20
2023-05-10T14:22:39.568Z,50.02
2023-05-10T14:25:06.928Z,48.07
2023-05-10T14:27:34.041Z,48.92
2023-05-10T14:30:03.433Z,50.10
2023-05-10T14:32:30.617Z,49.57
2023-05-10T14:34:57.356Z,48.92
2023-05-10T14:37:24.050Z,47.58
2023-05-10T14:39:50.938Z,49.77
2023-05-10T14:42:18.037Z,51.51
2023-05-10T14:44:45.823Z,49.49
2023-05-10T14:47:12.537Z,49.88
2023-05-10T14:49:39.817Z,49.68
2023-05-10T14:52:06.771Z,49.57
2023-05-10T14:54:33.796Z,51.39
2023-05-10T14:57:00.791Z,50.83
2023-05-10T14:59:27.812Z,50.90
2023-05-10T15:01:55.133Z,51.73
2023-05-10T15:04:23.162Z,51.06
2023-05-10T15:06:50.970Z,50.59
2023-05-10T15:09:18.028Z,50.11
2023-05-10T15:11:45.911Z,50.04
2023-05-10T15:14:15.402Z,49.43
2023-05-10T15:16:42.459Z,49.23
2023-05-10T15:19:09.688Z,48.50
2023-05-10T15:21:36.974Z,49.71
2023-05-10T15:24:05.005Z,50.03
2023-05-10T15:26:33.037Z,50.49
2023-05-10T15:29:00.016Z,50.90
2023-05-10T15:31:26.749Z,50.79
2023-05-10T15:33:57.702Z,49.68
2023-05-10T15:36:24.444Z,48.45
2023-05-10T15:38:51.543Z,47.49
2023-05-10T15:41:18.330Z,49.74
2023-05-10T15:43:45.952Z,49.32
2023-05-10T15:46:13.152Z,50.97
2023-05-10T15:48:39.929Z,50.27
2023-05-10T15:51:07.891Z,49.18
2023-05-10T15:53:34.601Z,50.97
2023-05-10T15:56:04.681Z,50.84
2023-05-10T15:58:31.843Z,51.99
2023-05-10T16:00:59.730Z,51.30
2023-05-10T16:03:26.746Z,53.47
2023-05-10T16:05:53.887Z,52.98
2023-05-10T16:08:20.586Z,51.49
2023-05-10T16:10:47.331Z,52.20
2023-05-10T16:13:15.024Z,53.85
2023-05-10T16:15:44.675Z,52.59
2023-05-10T16:18:11.390Z,52.47
2023-05-10T16:20:38.722Z,50.78
2023-05-10T16:23:06.392Z,50.94
2023-05-10T16:25:33.315Z,52.27
2023-05-10T16:28:02.854Z,52.55
2023-05-10T16:30:29.857Z,52.14
2023-05-10T16:32:57.192Z,51.35
2023-05-10T16:35:24.002Z,52.94
2023-05-10T16:37:51.205Z,53.78
2023-05-10T16:40:20.754Z,53.28
2023-05-10T16:42:49.162Z,51.99
2023-05-10T16:45:17.623Z,54.53
2023-05-10T16:47:45.232Z,53.77
2023-05-10T16:50:12.794Z,53.47
2023-05-10T16:52:40.048Z,53.35
2023-05-10T16:55:08.059Z,52.67
2023-05-10T16:57:35.478Z,52.80
2023-05-10T17:00:02.367Z,53.38
2023-05-10T17:02:29.678Z,52.90
2023-05-10T17:04:56.502Z,51.12
2023-05-10T17:07:26.076Z,53.34
2023-05-10T17:09:54.095Z,54.01
2023-05-10T17:12:21.281Z,53.87
2023-05-10T17:14:47.980Z,54.42
2023-05-10T17:17:15.085Z,54.44
2023-05-10T17:19:42.213Z,54.37
2023-05-10T17:22:09.443Z,54.06
2023-05-10T17:24:36.661Z,53.34
2023-05-10T17:27:04.145Z,54.81
2023-05-10T17:29:30.861Z,53.58
2023-05-10T17:32:07.557Z,51.95
2023-05-10T17:34:37.940Z,51.57
2023-05-10T17:37:06.173Z,51.83
2023-05-10T17:39:32.945Z,52.74
2023-05-10T17:42:00.781Z,51.83
2023-05-10T17:44:32.904Z,51.34
2023-05-10T17:46:59.990Z,52.49
2023-05-10T17:49:26.980Z,50.96
2023-05-10T17:51:54.187Z,50.06
2023-05-10T17:54:21.266Z,49.43
2023-05-10T17:56:53.143Z,44.83
2023-05-10T17:59:20.887Z,42.14
2023-05-10T18:01:47.659Z,41.08
2023-05-10T18:04:14.847Z,41.76
2023-05-10T18:06:42.155Z,41.30
2023-05-10T18:09:11.648Z,41.36
2023-05-10T18:11:38.317Z,42.83
2023-05-10T18:14:06.417Z,43.62
2023-05-10T18:16:33.614Z,46.33
2023-05-10T18:19:03.282Z,50.50
2023-05-10T18:21:32.943Z,48.05
2023-05-10T18:24:00.677Z,47.80
2023-05-10T18:26:30.197Z,47.31
2023-05-10T18:28:59.146Z,48.88
2023-05-10T18:31:29.323Z,48.39
2023-05-10T18:33:56.122Z,50.50
2023-05-10T18:36:24.258Z,51.66
2023-05-10T18:38:52.143Z,51.04
2023-05-10T18:41:19.235Z,53.06
2023-05-10T18:43:48.883Z,54.06
2023-05-10T18:46:16.027Z,54.20
2023-05-10T18:48:45.525Z,54.74
2023-05-10T18:51:12.292Z,55.07
2023-05-10T18:53:41.812Z,58.26
2023-05-10T18:56:08.910Z,62.40
2023-05-10T18:58:38.133Z,61.92
2023-05-10T19:01:04.872Z,60.34
2023-05-10T19:03:31.559Z,59.38
2023-05-10T19:05:58.702Z,56.69
2023-05-10T19:08:25.959Z,60.90
2023-05-10T19:10:52.722Z,65.42
2023-05-10T19:13:19.727Z,64.97
2023-05-10T19:16:09.233Z,68.07
2023-05-10T19:18:39.151Z,68.26
2023-05-10T19:21:13.323Z,69.75
2023-05-10T19:23:40.367Z,68.35
2023-05-10T19:26:27.513Z,65.63
2023-05-10T19:28:57.669Z,64.90
2023-05-10T19:31:24.990Z,68.83
2023-05-10T19:33:52.865Z,70.45
2023-05-10T19:36:20.917Z,70.57
2023-05-10T19:38:52.358Z,71.02
2023-05-10T19:41:22.040Z,72.90
2023-05-10T19:43:50.378Z,71.89
2023-05-10T19:46:19.453Z,71.40
2023-05-10T19:48:47.565Z,71.85
2023-05-10T19:51:17.540Z,72.30
2023-05-10T19:53:44.644Z,74.84
2023-05-10T19:56:15.034Z,75.14
2023-05-10T19:58:48.187Z,75.23
2023-05-10T20:01:15.468Z,75.43
2023-05-10T20:03:43.299Z,75.31
2023-05-10T20:06:13.064Z,76.83
2023-05-10T20:08:43.563Z,78.35
2023-05-10T20:11:10.366Z,79.08
2023-05-10T20:13:37.143Z,78.05
2023-05-10T20:16:04.339Z,75.54
2023-05-10T20:18:32.178Z,75.18
2023-05-10T20:21:00.994Z,75.41
2023-05-10T20:23:29.058Z,76.12
2023-05-10T20:26:00.886Z,77.23
2023-05-10T20:28:28.981Z,76.97
2023-05-10T20:30:57.025Z,73.26
2023-05-10T20:33:24.920Z,72.67
2023-05-10T20:35:51.901Z,72.42
2023-05-10T20:38:18.659Z,73.50
2023-05-10T20:40:46.085Z,74.09
2023-05-10T20:43:13.230Z,75.13
2023-05-10T20:45:41.164Z,76.38
2023-05-10T20:48:12.132Z,75.89
2023-05-10T20:50:43.297Z,75.65
2023-05-10T20:53:10.431Z,75.08
2023-05-10T20:55:37.853Z,75.16
2023-05-10T20:58:05.342Z,75.11
2023-05-10T21:00:33.936Z,74.32
2023-05-10T21:03:00.728Z,71.39
2023-05-10T21:05:30.315Z,71.28
2023-05-10T21:07:57.364Z,69.54
2023-05-10T21:10:25.110Z,71.43
2023-05-10T21:12:56.340Z,72.46
2023-05-10T21:15:23.868Z,73.32
2023-05-10T21:17:55.221Z,70.96
2023-05-10T21:20:23.484Z,72.47
2023-05-10T21:22:50.939Z,73.15
2023-05-10T21:25:22.879Z,71.99
2023-05-10T21:27:52.109Z,73.31
2023-05-10T21:30:19.848Z,72.96
2023-05-10T21:32:47.602Z,74.18
2023-05-10T21:35:14.776Z,76.23
2023-05-10T21:37:45.688Z,74.32
2023-05-10T21:40:13.912Z,74.53
2023-05-10T21:42:44.334Z,74.84
2023-05-10T21:45:11.558Z,74.47
2023-05-10T21:47:38.288Z,76.18
2023-05-10T21:50:06.530Z,77.05
2023-05-10T21:52:34.298Z,74.99
2023-05-10T21:55:01.883Z,75.96
2023-05-10T21:57:28.978Z,74.09
2023-05-10T21:59:56.655Z,74.08
2023-05-10T22:02:24.055Z,76.69
2023-05-10T22:04:51.580Z,77.19
2023-05-10T22:07:18.704Z,77.24
2023-05-10T22:09:51.178Z,77.23
2023-05-10T22:12:19.342Z,77.28
2023-05-10T22:14:48.575Z,77.47
2023-05-10T22:17:18.083Z,77.18
2023-05-10T22:19:45.173Z,75.74
2023-05-10T22:22:13.711Z,75.33
2023-05-10T22:24:42.454Z,75.04
2023-05-10T22:27:10.257Z,73.23
2023-05-10T22:29:39.789Z,72.48
2023-05-10T22:32:07.057Z,74.01
2023-05-10T22:34:34.604Z,76.17
2023-05-10T22:37:03.246Z,75.67
2023-05-10T22:39:31.913Z,75.34
2023-05-10T22:42:02.000Z,76.23
2023-05-10T22:44:31.554Z,76.22
2023-05-10T22:47:01.052Z,75.22
2023-05-10T22:49:29.505Z,75.93
2023-05-10T22:51:58.920Z,75.61
2023-05-10T22:54:26.798Z,76.40
2023-05-10T22:56:54.004Z,76.12
2023-05-10T22:59:20.975Z,77.59
2023-05-10T23:01:48.412Z,75.89
2023-05-10T23:04:15.569Z,72.43
2023-05-10T23:06:47.825Z,70.88
2023-05-10T23:09:14.525Z,73.91
2023-05-10T23:11:42.085Z,73.77
2023-05-10T23:14:09.334Z,74.84
2023-05-10T23:16:36.474Z,74.63
2023-05-10T23:19:07.295Z,75.61
2023-05-10T23:21:36.986Z,76.04
2023-05-10T23:24:05.351Z,75.26
2023-05-10T23:26:35.427Z,75.12
2023-05-10T23:29:05.129Z,75.25
2023-05-10T23:31:33.474Z,74.10
2023-05-10T23:34:01.815Z,74.08
2023-05-10T23:36:31.425Z,73.84
2023-05-10T23:38:59.459Z,73.79
2023-05-10T23:41:27.369Z,74.45
2023-05-10T23:43:57.925Z,76.39
2023-05-10T23:46:25.134Z,76.08
2023-05-10T23:48:57.333Z,77.45
2023-05-10T23:51:24.886Z,76.44
2023-05-10T23:53:52.244Z,74.91
2023-05-10T23:56:20.881Z,76.71
2023-05-10T23:58:49.026Z,75.39
